Time;durP1;ratioP1;P1;durP2;ratioP2;P2;SDS_P1;SDS_P2;PMS_P1;PMS_P2;Temp;Humidity;BMP_temperature;BMP_pressure;BME280_temperature;BME280_humidity;BME280_pressure;Samples;Min_cycle;Max_cycle;Signal;HPM_P1;HPM_P2
2022/05/29 00:00:11;;;;;;;9.05;2.20;;;;;;;9.47;81.77;101780.44;5076394;28;20062;-40
2022/05/29 00:02:37;;;;;;;11.98;2.33;;;;;;;9.44;81.66;101769.63;5076070;28;20421;-41
2022/05/29 00:05:03;;;;;;;10.18;2.00;;;;;;;9.46;81.81;101770.25;5076001;28;20032;-41
2022/05/29 00:07:28;;;;;;;11.25;2.30;;;;;;;9.46;82.03;101772.84;5075901;28;20028;-42
2022/05/29 00:09:54;;;;;;;10.68;2.00;;;;;;;9.49;81.71;101765.63;5075886;28;20127;-40
2022/05/29 00:12:21;;;;;;;10.93;1.90;;;;;;;9.52;81.53;101761.88;5076039;28;20033;-40
2022/05/29 00:14:48;;;;;;;10.80;2.20;;;;;;;9.42;81.95;101758.63;5075705;28;20039;-41
2022/05/29 00:17:15;;;;;;;6.38;2.00;;;;;;;9.35;82.33;101758.47;5076086;28;20025;-40
2022/05/29 00:19:40;;;;;;;11.63;2.40;;;;;;;9.44;82.22;101752.38;5075967;28;20025;-42
2022/05/29 00:22:06;;;;;;;12.43;2.40;;;;;;;9.22;82.62;101747.75;5076247;28;20487;-42
2022/05/29 00:24:32;;;;;;;10.63;2.40;;;;;;;9.26;82.81;101749.03;5075982;28;20024;-41
2022/05/29 00:26:58;;;;;;;7.95;2.03;;;;;;;9.19;83.52;101756.59;5075670;28;20383;-41
2022/05/29 00:29:23;;;;;;;7.85;2.15;;;;;;;9.32;83.13;101758.78;5075617;28;20379;-40
2022/05/29 00:31:48;;;;;;;8.63;2.30;;;;;;;9.33;83.12;101755.22;5075828;28;20035;-40
2022/05/29 00:34:14;;;;;;;10.48;2.17;;;;;;;9.40;82.02;101752.81;5075401;28;20040;-40
2022/05/29 00:36:43;;;;;;;10.50;2.20;;;;;;;9.42;81.78;101750.91;5075746;28;20025;-40
2022/05/29 00:39:11;;;;;;;10.63;2.40;;;;;;;9.40;82.93;101753.63;5057470;28;20028;-41
2022/05/29 00:41:38;;;;;;;9.13;1.88;;;;;;;9.42;82.31;101743.97;5075322;28;20050;-42
2022/05/29 00:44:20;;;;;;;16.77;2.20;;;;;;;9.42;82.74;101745.75;5075839;28;20372;-40
2022/05/29 00:46:54;;;;;;;10.52;2.50;;;;;;;9.42;82.13;101751.69;5075597;28;20029;-40
2022/05/29 00:49:28;;;;;;;6.15;2.00;;;;;;;9.51;82.26;101749.16;5075582;28;20031;-41
2022/05/29 00:52:11;;;;;;;9.15;2.00;;;;;;;9.60;82.75;101750.78;5075583;28;20459;-40
2022/05/29 00:54:44;;;;;;;15.82;2.40;;;;;;;9.74;81.89;101745.03;5074586;28;20123;-40
2022/05/29 00:57:12;;;;;;;8.85;2.03;;;;;;;9.83;82.23;101745.84;5058055;28;20029;-40
2022/05/29 00:59:38;;;;;;;9.90;2.47;;;;;;;9.91;81.34;101740.72;5075087;28;20028;-39
2022/05/29 01:02:04;;;;;;;8.60;2.17;;;;;;;9.91;82.12;101744.09;5075210;28;20036;-39
2022/05/29 01:04:35;;;;;;;8.80;2.05;;;;;;;10.06;81.36;101736.53;5075204;28;20031;-41
2022/05/29 01:07:08;;;;;;;9.38;2.30;;;;;;;10.13;81.28;101740.09;5074966;28;20020;-41
2022/05/29 01:09:35;;;;;;;11.77;2.28;;;;;;;10.08;80.92;101707.97;5074715;28;20407;-40
2022/05/29 01:12:13;;;;;;;7.00;1.90;;;;;;;10.17;81.48;101727.66;5075030;28;20480;-41
2022/05/29 01:14:38;;;;;;;8.85;2.15;;;;;;;10.28;81.22;101719.63;5056653;28;20034;-41
2022/05/29 01:17:18;;;;;;;14.43;1.97;;;;;;;10.26;80.92;101723.31;5075087;28;20032;-45
2022/05/29 01:19:54;;;;;;;10.57;2.30;;;;;;;10.31;80.97;101718.50;5074865;28;20261;-40
2022/05/29 01:22:35;;;;;;;9.70;1.90;;;;;;;10.41;81.06;101713.16;5074847;28;20568;-40
2022/05/29 01:25:41;;;;;;;10.65;2.20;;;;;;;10.45;81.32;101710.09;5074464;28;20464;-41
2022/05/29 01:28:43;;;;;;;8.35;1.70;;;;;;;10.48;81.28;101706.38;5074610;28;20549;-40
2022/05/29 01:31:18;;;;;;;7.95;1.88;;;;;;;10.54;81.65;101703.94;5074602;28;20474;-40
2022/05/29 01:34:09;;;;;;;10.18;2.15;;;;;;;10.59;82.35;101701.69;5056399;28;20025;-41
2022/05/29 01:36:53;;;;;;;14.77;2.35;;;;;;;10.62;83.08;101703.13;5071079;28;20047;-41
2022/05/29 01:39:22;;;;;;;;;;;;;;;10.59;83.76;101700.88;5074872;28;20052;-41
2022/05/29 01:41:57;;;;;;;8.57;1.88;;;;;;;10.65;83.08;101695.03;5074263;28;19944;-40
2022/05/29 01:44:32;;;;;;;14.73;2.17;;;;;;;10.54;83.68;101693.59;5074420;28;20100;-40
2022/05/29 01:47:05;;;;;;;7.97;2.10;;;;;;;10.42;83.47;101694.13;5074953;28;20055;-40
2022/05/29 01:49:46;;;;;;;13.95;2.70;;;;;;;10.39;84.15;101690.06;5074444;28;20028;-40
2022/05/29 01:52:16;;;;;;;5.75;1.90;;;;;;;10.41;83.96;101692.50;5074197;28;20028;-40
2022/05/29 01:54:50;;;;;;;14.18;2.05;;;;;;;10.43;84.00;101680.22;5073864;28;20025;-40
2022/05/29 01:57:33;;;;;;;14.30;2.58;;;;;;;10.44;83.12;101687.00;5074179;28;20111;-40
2022/05/29 02:00:16;;;;;;;8.82;1.90;;;;;;;10.45;83.37;101676.50;5055982;28;20031;-40
2022/05/29 02:03:14;;;;;;;15.73;3.28;;;;;;;10.45;82.71;101679.09;5073815;28;20024;-40
2022/05/29 02:05:48;;;;;;;12.52;1.98;;;;;;;10.52;83.80;101682.63;5056038;28;20040;-39
2022/05/29 02:08:36;;;;;;;8.23;1.90;;;;;;;10.41;85.06;101672.63;5073509;28;20045;-40
2022/05/29 02:11:06;;;;;;;6.88;1.88;;;;;;;10.49;85.92;101687.31;5073996;28;20063;-42
2022/05/29 02:13:35;;;;;;;13.18;2.30;;;;;;;10.51;86.56;101687.97;5073639;28;20103;-41
2022/05/29 02:16:13;;;;;;;8.85;2.30;;;;;;;10.47;86.75;101676.31;5073521;28;20386;-41
2022/05/29 02:18:47;;;;;;;9.07;1.77;;;;;;;10.43;86.59;101677.63;5073897;28;20042;-41
2022/05/29 02:21:42;;;;;;;9.45;2.08;;;;;;;10.52;87.15;101679.22;5073534;28;20025;-41
2022/05/29 02:24:13;;;;;;;5.78;1.70;;;;;;;10.43;88.61;101675.06;5073417;28;20078;-41
2022/05/29 02:26:55;;;;;;;10.18;2.00;;;;;;;10.48;89.32;101675.38;5073845;28;20232;-41
2022/05/29 02:29:21;;;;;;;9.90;2.20;;;;;;;10.51;88.93;101673.25;5073483;28;20039;-41
2022/05/29 02:31:46;;;;;;;4.45;1.75;;;;;;;10.44;88.65;101666.31;5055866;28;20456;-41
2022/05/29 02:34:27;;;;;;;9.20;2.00;;;;;;;10.48;89.52;101659.88;5073527;28;20432;-39
2022/05/29 02:37:01;;;;;;;10.07;2.10;;;;;;;10.54;89.96;101672.13;5073939;28;20336;-40
2022/05/29 02:39:36;;;;;;;8.80;2.20;;;;;;;10.59;90.45;101660.31;5073720;28;20024;-40
2022/05/29 02:42:14;;;;;;;8.20;1.98;;;;;;;10.61;90.48;101660.13;5073969;28;20082;-40
2022/05/29 02:44:54;;;;;;;12.35;2.70;;;;;;;10.57;89.67;101658.88;5073558;28;20028;-40
2022/05/29 02:47:29;;;;;;;12.73;2.10;;;;;;;10.60;90.32;101661.91;5055315;28;20024;-40
2022/05/29 02:50:19;;;;;;;7.90;2.15;;;;;;;10.47;91.93;101664.22;5073551;28;20032;-40
2022/05/29 02:52:45;;;;;;;6.70;1.70;;;;;;;10.38;92.36;101668.56;5073493;28;20483;-39
2022/05/29 02:55:11;;;;;;;8.40;2.40;;;;;;;10.66;92.26;101664.81;5073026;28;20137;-40
2022/05/29 02:57:38;;;;;;;6.78;2.10;;;;;;;10.61;92.05;101658.34;5073141;28;20051;-39
2022/05/29 03:00:13;;;;;;;6.82;1.90;;;;;;;10.62;91.96;101651.44;5073077;28;20020;-41
2022/05/29 03:03:05;;;;;;;9.43;2.15;;;;;;;10.52;92.33;101649.00;5073377;28;20034;-40
2022/05/29 03:05:46;;;;;;;7.63;2.10;;;;;;;10.50;93.01;101650.16;5073040;28;20078;-40
2022/05/29 03:08:59;;;;;;;10.43;2.05;;;;;;;10.52;93.30;101641.25;5072922;28;20090;-39
2022/05/29 03:11:37;;;;;;;7.85;1.92;;;;;;;10.56;92.81;101644.34;5068003;28;20044;-40
2022/05/29 03:14:24;;;;;;;6.47;1.70;;;;;;;10.46;92.34;101643.72;5073288;28;20017;-40
2022/05/29 03:17:09;;;;;;;8.80;2.00;;;;;;;10.48;91.89;101644.38;5072975;28;20028;-40
2022/05/29 03:19:58;;;;;;;12.98;2.20;;;;;;;10.44;93.03;101643.84;5077221;28;20020;-41
2022/05/29 03:22:38;;;;;;;7.13;2.03;;;;;;;10.49;93.80;101638.22;5077145;28;20021;-41
2022/05/29 03:25:12;;;;;;;7.75;1.85;;;;;;;10.45;93.66;101631.78;5077135;28;20077;-41
2022/05/29 03:27:44;;;;;;;12.13;2.03;;;;;;;10.38;93.34;101631.59;5077045;28;20016;-41
2022/05/29 03:30:12;;;;;;;8.05;2.13;;;;;;;10.55;93.57;101625.41;5077212;28;20067;-41
2022/05/29 03:32:38;;;;;;;4.60;1.75;;;;;;;10.54;93.24;101636.75;5077002;28;20047;-41
2022/05/29 03:35:26;;;;;;;6.10;1.65;;;;;;;10.45;93.02;101637.75;5076557;28;20021;-40
2022/05/29 03:37:52;;;;;;;7.35;2.30;;;;;;;10.52;93.36;101632.72;5076892;28;20033;-40
2022/05/29 03:40:19;;;;;;;5.80;1.85;;;;;;;10.42;92.97;101622.56;5076801;28;20062;-39
2022/05/29 03:42:44;;;;;;;8.65;1.90;;;;;;;10.56;93.04;101626.25;5076494;28;20024;-40
2022/05/29 03:45:10;;;;;;;5.75;1.88;;;;;;;10.58;93.37;101629.47;5076737;28;20016;-40
2022/05/29 03:47:37;;;;;;;6.88;2.17;;;;;;;10.50;93.19;101627.72;5076775;28;20051;-40
2022/05/29 03:50:05;;;;;;;9.60;2.10;;;;;;;10.51;93.01;101628.53;5076249;28;20028;-40
2022/05/29 03:52:31;;;;;;;9.07;2.28;;;;;;;10.43;93.07;101621.59;5076150;28;20089;-41
2022/05/29 03:54:57;;;;;;;8.85;2.08;;;;;;;10.54;93.63;101617.84;5076547;28;20047;-40
2022/05/29 03:57:22;;;;;;;7.03;1.98;;;;;;;10.49;93.57;101622.72;5076535;28;20487;-40
2022/05/29 03:59:48;;;;;;;7.05;1.98;;;;;;;10.55;93.03;101617.66;5076431;28;20016;-40
2022/05/29 04:02:13;;;;;;;17.25;2.17;;;;;;;10.64;93.15;101626.19;5076038;28;20370;-42
2022/05/29 04:04:38;;;;;;;7.40;2.00;;;;;;;10.67;92.19;101610.34;5076052;28;20040;-40
2022/05/29 04:07:03;;;;;;;7.88;1.92;;;;;;;10.67;92.67;101620.69;5076977;28;20031;-41
2022/05/29 04:12:13;;;;;;;9.57;2.05;;;;;;;10.76;91.28;101614.56;5075801;28;20060;-40
2022/05/29 04:14:43;;;;;;;13.57;2.40;;;;;;;10.65;90.45;101606.34;5076061;28;20024;-41
2022/05/29 04:17:11;;;;;;;9.52;2.17;;;;;;;10.60;90.78;101612.00;5076108;28;20021;-40
2022/05/29 04:19:37;;;;;;;10.65;1.95;;;;;;;10.72;90.58;101612.47;5076347;28;20054;-41
2022/05/29 04:22:08;;;;;;;11.60;2.00;;;;;;;10.69;90.55;101603.25;5076024;28;20546;-41
2022/05/29 04:24:33;;;;;;;10.20;2.05;;;;;;;10.77;89.87;101607.59;5076151;28;20036;-40
2022/05/29 04:26:58;;;;;;;8.48;2.00;;;;;;;10.58;88.77;101596.66;5075729;28;20383;-40
2022/05/29 04:29:24;;;;;;;9.90;2.17;;;;;;;10.86;88.28;101608.38;5074837;28;20078;-40
2022/05/29 04:34:33;;;;;;;8.20;2.05;;;;;;;10.79;87.73;101608.25;5075906;28;20031;-40
2022/05/29 04:36:58;;;;;;;5.75;2.10;;;;;;;10.85;88.26;101604.97;5075495;28;20111;-41
2022/05/29 04:39:25;;;;;;;5.85;2.00;;;;;;;10.94;87.75;101611.72;5075408;28;20024;-40
2022/05/29 04:41:50;;;;;;;8.10;2.20;;;;;;;10.95;87.91;101604.75;5075457;28;20051;-40
2022/05/29 04:44:16;;;;;;;8.75;2.47;;;;;;;10.86;88.75;101605.78;5075387;28;20470;-40
2022/05/29 04:46:41;;;;;;;8.57;2.40;;;;;;;10.87;88.96;101594.47;5075615;28;20021;-40
2022/05/29 04:49:07;;;;;;;6.10;2.40;;;;;;;10.81;88.57;101595.94;5075331;28;20028;-40
2022/05/29 04:51:32;;;;;;;10.30;2.03;;;;;;;10.90;89.80;101605.25;5075290;28;20099;-39
2022/05/29 04:53:57;;;;;;;5.85;2.13;;;;;;;10.92;88.75;101602.53;5075382;28;20036;-40
2022/05/29 04:56:23;;;;;;;9.73;2.53;;;;;;;10.90;89.37;101596.69;5057393;28;20387;-40
2022/05/29 04:58:48;;;;;;;7.18;2.30;;;;;;;10.97;89.67;101600.25;5075328;28;20043;-41
2022/05/29 05:01:13;;;;;;;11.88;2.30;;;;;;;10.94;88.82;101601.38;5075058;28;20111;-40
2022/05/29 05:03:38;;;;;;;8.10;2.22;;;;;;;11.09;88.86;101595.50;5075280;28;20032;-39
2022/05/29 05:06:04;;;;;;;9.00;2.33;;;;;;;11.22;89.51;101587.97;5075725;28;20016;-41
2022/05/29 05:08:29;;;;;;;7.10;2.08;;;;;;;11.39;88.48;101601.59;5074694;28;20083;-41
2022/05/29 05:10:55;;;;;;;10.13;2.75;;;;;;;11.43;87.46;101600.28;5057485;28;20036;-41
2022/05/29 05:13:21;;;;;;;11.68;2.63;;;;;;;11.37;87.80;101599.19;5074931;28;20360;-41
2022/05/29 05:15:46;;;;;;;10.80;2.20;;;;;;;11.40;86.53;101598.84;5074726;28;20031;-41
2022/05/29 05:18:11;;;;;;;7.97;2.13;;;;;;;11.72;86.24;101597.81;5074586;28;20024;-41
2022/05/29 05:20:38;;;;;;;12.60;2.30;;;;;;;11.92;85.04;101589.59;5074935;28;20035;-41
2022/05/29 05:23:03;;;;;;;8.55;2.17;;;;;;;12.03;83.60;101594.34;5074499;28;20138;-41
2022/05/29 05:25:28;;;;;;;6.88;1.90;;;;;;;12.28;83.50;101592.28;5074853;28;20017;-40
2022/05/29 05:27:54;;;;;;;12.45;3.08;;;;;;;12.45;81.94;101587.72;5074779;28;20592;-41
2022/05/29 05:30:20;;;;;;;10.70;2.50;;;;;;;12.65;81.59;101593.19;5074351;28;20035;-41
2022/05/29 05:32:45;;;;;;;14.10;2.67;;;;;;;12.65;81.09;101588.00;5074312;28;20024;-41
2022/05/29 05:35:10;;;;;;;10.50;2.28;;;;;;;12.41;81.82;101589.09;5074887;28;20024;-41
2022/05/29 05:37:38;;;;;;;10.90;2.30;;;;;;;12.33;81.24;101587.38;5074830;28;20409;-40
2022/05/29 05:40:10;;;;;;;7.55;2.22;;;;;;;12.33;81.37;101586.59;5074333;28;20329;-39
2022/05/29 05:42:36;;;;;;;10.77;2.40;;;;;;;12.54;80.03;101588.44;5074726;28;20483;-41
2022/05/29 05:45:03;;;;;;;10.63;2.47;;;;;;;12.48;79.71;101595.16;5074486;28;20479;-41
2022/05/29 05:47:28;;;;;;;12.15;2.47;;;;;;;12.35;81.05;101587.22;5056167;28;20061;-41
2022/05/29 05:49:53;;;;;;;9.68;2.33;;;;;;;12.34;80.40;101580.41;5073978;28;20028;-41
2022/05/29 05:52:19;;;;;;;10.15;2.42;;;;;;;14.76;75.09;101584.75;5074276;28;20056;-42
2022/05/29 05:54:45;;;;;;;10.55;2.20;;;;;;;18.12;58.22;101593.75;5056200;28;20025;-39
2022/05/29 05:57:10;;;;;;;10.45;2.30;;;;;;;19.65;52.05;101592.59;5074446;28;20066;-41
2022/05/29 05:59:37;;;;;;;9.95;2.25;;;;;;;16.40;61.47;101596.44;5074176;28;20418;-41
2022/05/29 06:02:03;;;;;;;10.52;2.40;;;;;;;14.10;70.74;101594.81;5074071;28;20058;-40
2022/05/29 06:04:28;;;;;;;11.45;2.42;;;;;;;12.98;74.83;101591.00;5073826;28;20024;-40
2022/05/29 06:06:54;;;;;;;12.65;2.20;;;;;;;12.77;76.08;101593.53;5073810;28;20051;-41
2022/05/29 06:09:20;;;;;;;10.43;2.00;;;;;;;12.78;77.19;101589.97;5073603;28;20059;-41
2022/05/29 06:11:46;;;;;;;14.02;2.42;;;;;;;12.66;78.06;101592.22;5055957;28;20020;-41
2022/05/29 06:14:11;;;;;;;11.98;2.72;;;;;;;12.44;77.88;101586.13;5074388;28;20036;-41
2022/05/29 06:16:37;;;;;;;8.02;2.20;;;;;;;12.50;76.88;101589.81;5073852;28;20023;-40
2022/05/29 06:19:04;;;;;;;8.77;2.20;;;;;;;12.83;76.77;101592.78;5073645;28;20115;-40
2022/05/29 06:21:30;;;;;;;11.02;2.10;;;;;;;13.20;74.24;101591.81;5073606;28;20028;-41
2022/05/29 06:23:55;;;;;;;6.80;1.75;;;;;;;13.16;75.14;101595.75;5073723;28;20055;-41
2022/05/29 06:26:20;;;;;;;9.82;1.98;;;;;;;12.94;73.31;101589.72;5073781;28;20024;-41
2022/05/29 06:28:46;;;;;;;8.40;2.00;;;;;;;13.20;71.91;101591.00;5073431;28;20125;-41
2022/05/29 06:31:12;;;;;;;9.95;2.03;;;;;;;16.70;60.77;101587.09;5056028;28;20078;-40
2022/05/29 06:33:38;;;;;;;5.70;1.80;;;;;;;21.12;47.46;101588.69;5073417;28;20025;-41
2022/05/29 06:36:18;;;;;;;7.95;1.90;;;;;;;23.08;42.21;101590.16;5074097;28;20435;-41
2022/05/29 06:38:45;;;;;;;11.00;1.98;;;;;;;22.93;41.74;101575.78;5073910;28;20020;-41
2022/05/29 06:41:12;;;;;;;7.55;1.65;;;;;;;20.17;47.00;101587.41;5073607;28;20111;-41
2022/05/29 06:43:38;;;;;;;5.28;1.60;;;;;;;17.20;55.04;101576.00;5073609;28;20383;-42
2022/05/29 06:46:06;;;;;;;7.03;1.67;;;;;;;17.77;53.43;101581.19;5073546;28;20028;-41
2022/05/29 06:48:32;;;;;;;6.93;1.88;;;;;;;17.50;55.31;101575.41;5073470;28;20532;-41
2022/05/29 06:51:02;;;;;;;12.45;1.70;;;;;;;18.02;53.47;101579.38;5073148;28;20463;-41
2022/05/29 06:53:27;;;;;;;6.13;1.35;;;;;;;18.13;52.92;101575.25;5077907;28;20028;-40
2022/05/29 06:55:54;;;;;;;3.92;1.38;;;;;;;18.88;50.35;101577.59;5079867;28;20098;-40
2022/05/29 06:58:21;;;;;;;6.45;1.40;;;;;;;18.40;51.46;101573.13;5079675;28;20074;-41
2022/05/29 07:08:59;;;;;;;7.18;1.60;;;;;;;19.44;49.61;101580.00;5079678;28;20517;-41
2022/05/29 07:11:27;;;;;;;6.10;1.90;;;;;;;19.46;48.30;101580.56;5079899;28;20032;-41
2022/05/29 07:13:54;;;;;;;5.35;1.30;;;;;;;18.54;47.79;101578.22;5079636;28;20034;-41
2022/05/29 07:16:20;;;;;;;6.18;1.40;;;;;;;18.31;49.46;101576.28;5079614;28;20055;-40
2022/05/29 07:18:48;;;;;;;6.85;1.60;;;;;;;18.26;51.63;101569.84;5080053;28;20434;-40
2022/05/29 07:21:13;;;;;;;5.57;1.50;;;;;;;18.23;49.63;101586.00;5079786;28;20035;-41
2022/05/29 07:23:38;;;;;;;9.07;1.50;;;;;;;18.31;48.87;101569.22;5080240;28;20122;-40
2022/05/29 07:26:05;;;;;;;9.60;1.85;;;;;;;17.76;49.34;101579.59;5062023;28;20078;-40
2022/05/29 07:28:30;;;;;;;2.85;1.02;;;;;;;17.76;49.60;101574.38;5079849;28;20108;-40
2022/05/29 07:30:56;;;;;;;6.57;1.48;;;;;;;17.87;50.13;101567.69;5079632;28;20059;-40
2022/05/29 07:33:21;;;;;;;7.47;1.70;;;;;;;17.20;51.31;101572.59;5079424;28;20122;-39
2022/05/29 07:35:47;;;;;;;3.88;1.17;;;;;;;16.98;52.49;101566.94;5079461;28;20383;-40
2022/05/29 07:38:12;;;;;;;5.10;1.10;;;;;;;16.59;52.98;101566.88;5079915;28;20111;-41
2022/05/29 07:40:38;;;;;;;6.13;1.27;;;;;;;15.99;55.08;101568.88;5079692;28;20032;-41
2022/05/29 07:43:19;;;;;;;7.13;1.50;;;;;;;15.86;56.08;101574.91;5079753;28;20100;-40
2022/05/29 07:45:53;;;;;;;5.55;1.67;;;;;;;16.84;54.03;101568.81;5079919;28;20020;-41
2022/05/29 07:48:23;;;;;;;5.97;1.60;;;;;;;16.50;56.39;101564.72;5061863;28;20494;-40
2022/05/29 07:50:48;;;;;;;7.57;1.58;;;;;;;17.99;52.41;101565.94;5079610;28;20024;-40
2022/05/29 07:53:14;;;;;;;6.90;1.40;;;;;;;17.55;52.33;101562.47;5079258;28;20390;-40
2022/05/29 07:55:39;;;;;;;9.38;1.50;;;;;;;17.17;54.46;101570.41;5079588;28;20020;-40
2022/05/29 07:58:06;;;;;;;5.80;1.40;;;;;;;16.18;55.92;101577.66;5061559;28;20028;-41
2022/05/29 08:00:32;;;;;;;9.43;1.83;;;;;;;17.08;55.15;101565.44;5079199;28;20420;-41
2022/05/29 08:02:58;;;;;;;7.80;1.65;;;;;;;16.80;54.89;101565.81;5079538;28;20035;-41
2022/05/29 08:05:23;;;;;;;8.52;1.70;;;;;;;17.46;53.04;101571.59;5076209;28;20017;-41
2022/05/29 08:07:50;;;;;;;10.77;1.60;;;;;;;17.95;52.95;101551.69;5076876;28;20462;-41
2022/05/29 08:10:18;;;;;;;7.95;1.63;;;;;;;17.69;53.25;101561.34;5058180;28;20086;-41
2022/05/29 08:12:44;;;;;;;8.35;1.52;;;;;;;16.95;55.66;101562.94;5076117;28;20024;-41
2022/05/29 08:15:10;;;;;;;7.00;1.13;;;;;;;15.94;57.18;101574.69;5075729;28;20074;-46
2022/05/29 08:17:36;;;;;;;6.00;1.50;;;;;;;15.51;56.88;101566.47;5076170;28;20024;-41
2022/05/29 08:20:02;;;;;;;10.18;1.58;;;;;;;16.18;56.51;101556.81;5075726;28;20533;-41
2022/05/29 08:22:27;;;;;;;5.93;1.40;;;;;;;17.17;54.89;101562.56;5076111;28;20024;-41
2022/05/29 08:30:38;;;;;;;5.40;1.20;;;;;;;17.44;52.26;101566.59;5076430;28;20118;-42
2022/05/29 08:33:05;;;;;;;2.60;1.00;;;;;;;16.66;53.37;101541.56;5075871;28;20047;-41
2022/05/29 08:35:32;;;;;;;4.28;0.88;;;;;;;15.89;56.69;101571.09;5075468;28;20032;-41
2022/05/29 08:37:59;;;;;;;3.03;0.98;;;;;;;15.12;58.58;101574.03;5075434;28;20069;-41
2022/05/29 08:40:26;;;;;;;2.97;1.00;;;;;;;14.98;59.26;101571.59;5075410;28;20032;-41
2022/05/29 08:42:51;;;;;;;3.58;0.70;;;;;;;16.09;56.11;101574.47;5075930;28;20033;-41
2022/05/29 08:45:18;;;;;;;2.45;0.60;;;;;;;16.93;53.66;101559.72;5075336;28;20109;-41
2022/05/29 08:47:45;;;;;;;3.00;0.50;;;;;;;16.85;53.18;101568.59;5075494;28;20017;-41
2022/05/29 08:50:31;;;;;;;1.95;0.50;;;;;;;16.72;51.92;101560.03;5075520;28;20044;-40
2022/05/29 08:53:04;;;;;;;1.67;0.35;;;;;;;16.01;53.74;101569.47;5075489;28;20057;-41
2022/05/29 08:55:51;;;;;;;1.00;0.40;;;;;;;16.04;54.19;101566.44;5075066;28;20128;-41
2022/05/29 08:58:34;;;;;;;0.90;0.40;;;;;;;16.01;53.27;101570.25;5075238;28;20368;-41
2022/05/29 09:00:59;;;;;;;1.65;0.35;;;;;;;16.39;54.79;101566.94;5075571;28;20455;-39
2022/05/29 09:03:49;;;;;;;1.63;0.60;;;;;;;17.34;51.46;101561.03;5075206;28;20036;-41
2022/05/29 09:06:33;;;;;;;3.92;0.60;;;;;;;17.56;51.00;101566.72;5075180;28;20036;-40
2022/05/29 09:09:18;;;;;;;6.40;0.85;;;;;;;16.72;52.76;101567.84;5074625;28;20076;-42
2022/05/29 09:11:51;;;;;;;5.93;1.30;;;;;;;16.99;52.20;101568.53;5075384;28;20028;-41
2022/05/29 09:14:23;;;;;;;;;;;;;;;16.37;53.48;101558.56;5075374;28;20029;-40
2022/05/29 09:17:02;;;;;;;3.42;0.85;;;;;;;17.13;54.03;101560.38;5074437;28;19908;-40
2022/05/29 09:19:35;;;;;;;8.40;1.58;;;;;;;16.82;54.01;101565.59;5075193;28;20111;-41
2022/05/29 09:22:03;;;;;;;;;;;;;;;16.69;55.31;101562.03;5075268;28;20032;-41
2022/05/29 09:24:38;;;;;;;4.38;1.15;;;;;;;16.36;56.02;101569.19;5074759;28;19934;-40
2022/05/29 09:27:04;;;;;;;6.28;1.33;;;;;;;15.71;57.34;101562.09;5074374;28;20471;-40
2022/05/29 09:29:30;;;;;;;7.30;1.33;;;;;;;14.89;59.93;101556.16;5074502;28;20049;-40
2022/05/29 09:31:56;;;;;;;7.10;1.25;;;;;;;15.32;60.58;101561.03;5074712;28;20061;-41
2022/05/29 09:34:21;;;;;;;7.18;1.50;;;;;;;15.39;59.62;101563.66;5074177;28;20028;-40
2022/05/29 09:36:58;;;;;;;6.55;1.58;;;;;;;15.21;60.38;101559.03;5056924;28;20031;-41
2022/05/29 09:39:27;;;;;;;8.02;1.30;;;;;;;15.33;60.01;101552.25;5074837;28;20025;-41
2022/05/29 09:42:15;;;;;;;8.30;1.63;;;;;;;15.17;58.61;101552.63;5074390;28;20020;-41
2022/05/29 09:45:03;;;;;;;4.68;1.00;;;;;;;15.98;57.07;101554.25;5074672;28;20427;-40
2022/05/29 09:50:18;;;;;;;5.63;1.15;;;;;;;15.64;56.46;101545.63;5074920;28;20044;-40
2022/05/29 09:52:45;;;;;;;10.15;1.42;;;;;;;15.76;57.59;101548.44;5074085;28;20025;-40
2022/05/29 09:55:30;;;;;;;6.88;1.42;;;;;;;15.58;56.92;101544.63;5073945;28;20028;-40
2022/05/29 09:57:59;;;;;;;6.43;1.40;;;;;;;15.80;56.08;101549.66;5074004;28;20032;-40
2022/05/29 10:00:35;;;;;;;8.80;1.85;;;;;;;15.60;56.49;101541.03;5074233;28;20020;-40
2022/05/29 10:03:02;;;;;;;6.38;1.42;;;;;;;15.34;57.54;101551.25;5074313;28;20119;-40
2022/05/29 10:05:34;;;;;;;5.40;1.65;;;;;;;15.37;57.32;101549.25;5073804;28;20020;-41
2022/05/29 10:08:17;;;;;;;5.60;1.20;;;;;;;15.54;56.63;101546.03;5073586;28;20044;-41
2022/05/29 10:10:42;;;;;;;10.32;1.55;;;;;;;15.40;56.72;101548.84;5074067;28;20024;-40
2022/05/29 10:13:08;;;;;;;4.45;1.15;;;;;;;14.99;58.50;101542.78;5073611;28;20383;-41
2022/05/29 10:15:37;;;;;;;5.20;1.23;;;;;;;14.74;60.28;101549.53;5055596;28;20482;-41
2022/05/29 10:18:11;;;;;;;7.70;1.30;;;;;;;14.47;60.96;101544.19;5073881;28;20463;-41
2022/05/29 10:20:44;;;;;;;9.90;1.58;;;;;;;14.38;61.05;101542.75;5074076;28;20055;-41
2022/05/29 10:23:11;;;;;;;;;;;;;;;14.69;59.66;101534.50;5073964;28;20024;-45
2022/05/29 10:25:59;;;;;;;9.02;1.48;;;;;;;14.72;57.91;101541.13;5074067;28;20454;-41
2022/05/29 10:28:30;;;;;;;6.72;1.40;;;;;;;15.22;56.74;101545.03;5072569;28;20016;-41
2022/05/29 10:30:59;;;;;;;5.47;1.00;;;;;;;15.29;55.62;101543.22;5055955;28;20129;-41
2022/05/29 10:33:28;;;;;;;6.45;1.48;;;;;;;15.65;55.82;101543.81;5073468;28;20445;-42
2022/05/29 10:36:09;;;;;;;7.30;1.20;;;;;;;15.70;55.55;101538.84;5073611;28;20024;-39
2022/05/29 10:38:35;;;;;;;9.23;1.27;;;;;;;15.51;55.25;101543.03;5073408;28;20158;-40
2022/05/29 10:41:03;;;;;;;6.10;1.42;;;;;;;15.38;56.02;101543.03;5073807;28;20059;-39
2022/05/29 10:43:46;;;;;;;7.95;1.67;;;;;;;15.66;55.85;101546.22;5073035;28;20032;-40
2022/05/29 10:46:18;;;;;;;6.65;1.10;;;;;;;15.34;53.29;101545.25;5073335;28;20023;-40
2022/05/29 10:49:06;;;;;;;7.53;1.40;;;;;;;15.76;52.07;101548.44;5073538;28;20020;-41
2022/05/29 10:51:49;;;;;;;5.75;1.23;;;;;;;15.73;52.14;101552.25;5073591;28;20024;-41
2022/05/29 10:54:36;;;;;;;5.18;1.25;;;;;;;15.85;53.27;101544.63;5073401;28;20463;-39
2022/05/29 10:57:41;;;;;;;7.15;1.70;;;;;;;16.11;52.36;101551.63;5055159;28;20120;-42
2022/05/29 11:01:00;;;;;;;4.97;1.13;;;;;;;15.59;51.90;101548.03;5073384;28;20048;-42
2022/05/29 11:03:33;;;;;;;6.13;0.95;;;;;;;15.04;53.78;101550.00;5011428;28;20025;-42
2022/05/29 11:06:26;;;;;;;4.97;1.00;;;;;;;15.12;53.62;101557.63;5053834;28;20037;-42
2022/05/29 11:09:20;;;;;;;7.47;1.30;;;;;;;15.07;53.20;101550.38;5073167;28;20060;-41
2022/05/29 11:11:59;;;;;;;8.13;1.17;;;;;;;15.23;52.35;101545.81;5073263;28;20029;-42
2022/05/29 11:14:42;;;;;;;5.18;1.25;;;;;;;15.46;51.75;101522.00;5055056;28;20108;-40
2022/05/29 11:17:21;;;;;;;5.03;1.15;;;;;;;16.01;51.27;101536.38;5073360;28;20111;-42
2022/05/29 11:19:55;;;;;;;5.15;1.08;;;;;;;16.06;50.83;101524.56;5073291;28;20115;-41
2022/05/29 11:22:50;;;;;;;4.60;0.98;;;;;;;16.46;50.67;101530.44;5073555;28;20079;-41
2022/05/29 11:25:27;;;;;;;6.07;1.17;;;;;;;17.12;49.37;101524.84;5073241;28;20016;-42
2022/05/29 11:28:04;;;;;;;4.50;1.13;;;;;;;16.57;49.49;101524.56;5072905;28;20040;-41
2022/05/29 11:30:52;;;;;;;4.40;1.02;;;;;;;16.94;49.63;101516.94;5073082;28;20165;-42
2022/05/29 11:33:48;;;;;;;8.05;1.23;;;;;;;17.23;49.11;101512.09;5073095;28;20519;-42
2022/05/29 11:36:16;;;;;;;5.85;0.98;;;;;;;16.88;49.58;101509.94;5073018;28;20028;-40
2022/05/29 11:39:15;;;;;;;3.90;1.10;;;;;;;16.66;49.46;101510.25;5074006;28;20442;-42
2022/05/29 11:42:01;;;;;;;8.65;1.35;;;;;;;15.62;51.17;101524.16;5076745;28;20024;-41
2022/05/29 11:44:33;;;;;;;5.97;1.40;;;;;;;15.17;52.60;101518.00;5076741;28;20055;-42
2022/05/29 11:52:44;;;;;;;4.30;1.00;;;;;;;15.68;51.80;101515.59;5077202;28;20063;-41
2022/05/29 11:55:18;;;;;;;4.70;1.10;;;;;;;16.60;49.29;101511.09;5076219;28;20283;-40
2022/05/29 11:58:07;;;;;;;3.30;0.90;;;;;;;17.13;47.37;101502.16;5075651;28;20029;-41
2022/05/29 12:00:32;;;;;;;7.50;1.58;;;;;;;17.27;46.81;101502.84;5075620;28;20031;-41
2022/05/29 12:03:28;;;;;;;3.73;0.90;;;;;;;17.09;47.84;101503.56;5076166;28;20103;-41
2022/05/29 12:06:12;;;;;;;7.38;1.25;;;;;;;16.67;48.46;101477.13;5076440;28;20105;-41
2022/05/29 12:08:48;;;;;;;4.38;1.25;;;;;;;16.99;50.61;101500.63;5076131;28;20145;-42
2022/05/29 12:11:22;;;;;;;7.72;1.65;;;;;;;16.47;50.80;101501.50;5076328;28;20497;-42
2022/05/29 12:14:44;;;;;;;7.80;1.40;;;;;;;16.49;51.15;101503.91;5075858;28;20107;-42